Quick Links (Output Below):   Max & Min Temps   /   Climate Reports   /   Zone Forecasts
River Forecasts   /   Forestry Forecasts   /   Aviation Forecasts   /   Radars   /   Features

Terminal Aerodrome Forecast (Mountain Home)

Pick a Site:
Arkadelphia | El Dorado | Fayetteville | Fort Smith | Harrison | Highfill | Hot Springs | Jonesboro
Little Rock | Monticello | Mountain Home | Pine Bluff | Texarkana
 Forecast 

KBPK 191120Z 1912/2012 08003KT P6SM BKN008 OVC015
      TEMPO 1912/1914 5SM BR BKN004
     FM191600 VRB04KT P6SM SCT008 OVC020
     FM200200 13002KT 4SM BR SCT008 OVC015 PROB30 2006/2012 1SM -DZ
      BR OVC008=


 Latest METARs (Observations) 
How to Decode METARs
10Z KBPK 190953Z AUTO 06003KT 5SM BR OVC004 03/02 A3017 RMK AO2 SLP222
         T00280022
         
09Z KBPK 190853Z AUTO 04004KT 4SM BR OVC003 03/02 A3019 RMK AO2 SLP229
         T00280022 58011
         
08Z KBPK 190753Z AUTO 00000KT 4SM BR OVC004 03/03 A3022 RMK AO2 SLP237
         T00330028
         
07Z KBPK 190653Z AUTO 00000KT 4SM BR OVC004 03/03 A3021 RMK AO2 SLP236
         T00280028
         
06Z KBPK 190553Z AUTO 00000KT 1/2SM FG VV002 03/03 A3023 RMK AO2
         SLP241 T00280028 10033 20028 400330006 50001
         
05Z KBPK 190453Z AUTO 00000KT 2SM BR OVC003 03/03 A3024 RMK AO2 SLP244
         T00280028
         
04Z KBPK 190353Z AUTO 12003KT 5SM BR OVC005 03/02 A3023 RMK AO2 SLP240
         T00280022
         
03Z KBPK 190253Z AUTO 00000KT 5SM BR OVC005 03/02 A3022 RMK AO2 SLP237
         T00280022 51012
         
02Z KBPK 190153Z AUTO 07003KT 7SM OVC007 03/02 A3020 RMK AO2 SLP234
         T00280022
         
01Z KBPK 190053Z AUTO 00000KT 7SM OVC009 03/02 A3020 RMK AO2 SLP231
         T00330017
         
***** Today's Observations (Above) *****


Back to Main Page
http://www.srh.noaa.gov/lzk/qfcst.php

USA.gov is the U.S. government's official web portal to all federal, state and local government web resources and services.